Time;durP1;ratioP1;P1;durP2;ratioP2;P2;SDS_P1;SDS_P2;PMS_P1;PMS_P2;Temp;Humidity;BMP_temperature;BMP_pressure;BME280_temperature;BME280_humidity;BME280_pressure;Samples;Min_cycle;Max_cycle;Signal;HPM_P1;HPM_P2
2021/09/27 00:02:06;;;;;;;51.25;31.08;;;13.10;99.90;;;;;;5051577;28;20537;-84
2021/09/27 00:04:32;;;;;;;52.50;33.50;;;13.10;99.90;;;;;;5051720;28;20021;-84
2021/09/27 00:06:58;;;;;;;52.55;31.80;;;13.10;99.90;;;;;;5052793;28;20083;-84
2021/09/27 00:09:32;;;;;;;47.83;28.48;;;13.00;99.90;;;;;;5052656;28;20191;-84
2021/09/27 00:12:03;;;;;;;42.60;28.55;;;13.00;99.90;;;;;;5051512;28;20044;-84
2021/09/27 00:14:29;;;;;;;46.35;29.92;;;13.00;99.90;;;;;;5051348;28;20021;-84
2021/09/27 00:16:55;;;;;;;49.20;30.55;;;13.00;99.90;;;;;;5051486;28;20024;-84
2021/09/27 00:19:23;;;;;;;46.78;30.65;;;12.90;99.90;;;;;;5051279;28;20493;-84
2021/09/27 00:21:51;;;;;;;52.75;29.35;;;12.90;99.90;;;;;;5051471;28;20013;-84
2021/09/27 00:24:17;;;;;;;52.75;31.63;;;12.90;99.90;;;;;;5052113;28;20540;-84
2021/09/27 00:26:43;;;;;;;47.22;30.08;;;12.90;99.90;;;;;;5051247;28;20033;-84
2021/09/27 00:29:08;;;;;;;46.08;29.40;;;12.90;99.90;;;;;;5052474;28;20021;-84
2021/09/27 00:31:34;;;;;;;48.53;28.00;;;12.90;99.90;;;;;;5052561;28;20044;-84
2021/09/27 00:34:00;;;;;;;49.80;29.23;;;12.80;99.90;;;;;;5051200;28;20017;-84
2021/09/27 00:36:26;;;;;;;48.38;30.05;;;12.80;99.90;;;;;;5052427;28;20075;-83
2021/09/27 00:38:51;;;;;;;44.75;27.52;;;12.80;99.90;;;;;;5051029;28;20028;-84
2021/09/27 00:41:20;;;;;;;45.92;29.30;;;12.80;99.90;;;;;;5051139;28;20071;-84
2021/09/27 00:43:46;;;;;;;45.28;28.67;;;12.80;99.90;;;;;;5051089;28;20104;-84
2021/09/27 00:46:17;;;;;;;42.95;26.77;;;12.80;99.90;;;;;;5050988;28;20087;-84
2021/09/27 00:48:43;;;;;;;42.00;27.85;;;12.80;99.90;;;;;;5051153;28;20025;-85
2021/09/27 00:51:16;;;;;;;45.38;27.83;;;12.80;99.90;;;;;;5050786;28;20051;-84
2021/09/27 00:53:50;;;;;;;43.97;27.48;;;12.80;99.90;;;;;;5052401;28;20028;-84
2021/09/27 00:56:20;;;;;;;40.80;26.13;;;12.70;99.90;;;;;;5052334;28;20099;-83
2021/09/27 00:58:47;;;;;;;45.35;27.20;;;12.70;99.90;;;;;;5050916;28;20437;-84
2021/09/27 01:01:13;;;;;;;46.58;27.98;;;12.70;99.90;;;;;;5050918;28;20025;-83
2021/09/27 01:03:40;;;;;;;45.13;27.80;;;12.70;99.90;;;;;;5050891;28;20017;-83
2021/09/27 01:06:25;;;;;;;46.65;28.77;;;12.70;99.90;;;;;;5052221;28;20029;-84
2021/09/27 01:08:53;;;;;;;53.88;28.60;;;12.60;99.90;;;;;;5053035;28;20512;-84
2021/09/27 01:11:52;;;;;;;48.00;28.05;;;12.60;99.90;;;;;;5054546;28;20067;-84
2021/09/27 01:14:36;;;;;;;43.90;25.75;;;12.60;99.90;;;;;;5054123;28;20090;-84
2021/09/27 01:17:17;;;;;;;49.88;28.83;;;12.60;99.90;;;;;;5054537;28;20080;-84
2021/09/27 01:20:28;;;;;;;43.97;26.05;;;12.60;99.90;;;;;;5054487;28;20056;-84
2021/09/27 01:23:15;;;;;;;43.13;26.52;;;12.60;99.90;;;;;;5054140;28;20118;-84
2021/09/27 01:25:59;;;;;;;41.90;25.70;;;12.60;99.90;;;;;;5054293;28;20052;-84
2021/09/27 01:28:57;;;;;;;43.47;26.05;;;12.60;99.90;;;;;;5054128;28;20581;-84
2021/09/27 01:31:44;;;;;;;43.10;26.35;;;12.60;99.90;;;;;;5054258;28;20028;-84
2021/09/27 01:34:24;;;;;;;40.53;25.77;;;12.60;99.90;;;;;;5054162;28;20063;-84
2021/09/27 01:37:08;;;;;;;46.85;27.75;;;12.50;99.90;;;;;;5054173;28;20013;-84
2021/09/27 01:39:50;;;;;;;42.63;26.27;;;12.50;99.90;;;;;;5052944;28;20383;-84
2021/09/27 01:42:35;;;;;;;43.53;28.00;;;12.50;99.90;;;;;;5038900;28;20017;-84
2021/09/27 01:45:11;;;;;;;46.17;26.77;;;12.40;99.90;;;;;;5053941;28;20029;-84
2021/09/27 01:47:50;;;;;;;47.92;28.33;;;12.40;99.90;;;;;;5055108;28;20479;-84
2021/09/27 01:50:25;;;;;;;51.80;28.65;;;12.40;99.90;;;;;;5053808;28;20028;-84
2021/09/27 01:53:01;;;;;;;44.75;26.27;;;12.40;99.90;;;;;;5053838;28;20425;-84
2021/09/27 01:55:36;;;;;;;46.28;27.38;;;12.40;99.90;;;;;;5053745;28;20025;-84
2021/09/27 01:58:15;;;;;;;44.75;26.05;;;12.40;99.90;;;;;;5055143;28;20025;-84
2021/09/27 02:00:48;;;;;;;41.50;26.00;;;12.40;99.90;;;;;;5053728;28;20029;-84
2021/09/27 02:03:36;;;;;;;45.38;27.17;;;12.40;99.90;;;;;;5068950;28;20024;-84
2021/09/27 02:06:14;;;;;;;45.47;26.13;;;12.40;99.90;;;;;;5053565;28;20090;-84
2021/09/27 02:09:04;;;;;;;41.47;26.63;;;12.40;99.90;;;;;;5055081;28;20013;-85
2021/09/27 02:11:39;;;;;;;48.38;28.25;;;12.40;99.90;;;;;;5053486;28;20020;-84
2021/09/27 02:14:08;;;;;;;48.80;29.30;;;12.50;99.90;;;;;;5054645;28;20025;-84
2021/09/27 02:17:12;;;;;;;50.92;28.65;;;12.50;99.90;;;;;;5054889;28;20498;-84
2021/09/27 02:20:17;;;;;;;46.17;27.63;;;12.50;99.90;;;;;;5052367;28;20055;-84
2021/09/27 02:22:56;;;;;;;51.22;29.10;;;12.50;99.90;;;;;;5054467;28;20379;-84
2021/09/27 02:25:32;;;;;;;51.85;28.30;;;12.50;99.90;;;;;;5053192;28;20029;-84
2021/09/27 02:28:02;;;;;;;49.83;29.58;;;12.50;99.90;;;;;;5052788;28;20025;-84
2021/09/27 02:30:41;;;;;;;54.63;29.85;;;12.50;99.90;;;;;;5033156;28;20063;-84
2021/09/27 02:33:28;;;;;;;60.33;31.75;;;12.50;99.90;;;;;;5033055;28;20075;-84
2021/09/27 02:36:01;;;;;;;57.72;31.05;;;12.50;99.90;;;;;;5033135;28;20025;-84
2021/09/27 02:38:31;;;;;;;60.08;31.67;;;12.60;99.90;;;;;;5032840;28;20034;-84
2021/09/27 02:41:04;;;;;;;56.50;30.30;;;12.60;99.90;;;;;;5033061;28;20151;-84
2021/09/27 02:43:30;;;;;;;56.85;31.75;;;12.60;99.90;;;;;;5032837;28;20033;-84
2021/09/27 02:45:56;;;;;;;59.10;30.83;;;12.70;99.90;;;;;;5032811;28;20034;-84
2021/09/27 02:48:38;;;;;;;62.85;31.30;;;12.60;99.90;;;;;;5032670;28;20040;-84
2021/09/27 02:51:05;;;;;;;60.00;31.75;;;12.70;99.90;;;;;;5032855;28;20163;-85
2021/09/27 02:53:31;;;;;;;54.00;30.15;;;12.60;99.90;;;;;;5032650;28;20021;-84
2021/09/27 02:56:31;;;;;;;64.63;33.70;;;12.70;99.90;;;;;;5032677;28;20498;-84
2021/09/27 02:59:06;;;;;;;57.03;30.40;;;12.70;99.90;;;;;;5042775;28;20063;-84
2021/09/27 03:02:04;;;;;;;60.83;34.60;;;12.60;99.90;;;;;;5052389;28;20532;-84
2021/09/27 03:05:02;;;;;;;60.85;29.77;;;12.60;99.90;;;;;;5053188;28;20020;-84
2021/09/27 03:07:30;;;;;;;59.85;31.20;;;12.60;99.90;;;;;;5052081;28;20043;-84
2021/09/27 03:10:05;;;;;;;52.13;29.10;;;12.60;99.90;;;;;;5052334;28;20470;-84
2021/09/27 03:13:03;;;;;;;57.40;30.85;;;12.60;99.90;;;;;;5051929;28;20399;-84
2021/09/27 03:15:47;;;;;;;69.95;33.33;;;12.60;99.90;;;;;;5032253;28;20091;-84
2021/09/27 03:18:40;;;;;;;56.70;29.02;;;12.60;99.90;;;;;;5034190;28;20044;-84
2021/09/27 03:21:15;;;;;;;60.05;28.58;;;12.50;99.90;;;;;;5053856;28;20081;-84
2021/09/27 03:23:52;;;;;;;64.57;29.83;;;12.50;99.90;;;;;;5053475;28;20029;-85
2021/09/27 03:26:40;;;;;;;72.10;30.73;;;12.50;99.90;;;;;;5052013;28;20037;-84
2021/09/27 03:29:23;;;;;;;66.13;30.42;;;12.40;99.90;;;;;;5051907;28;20036;-84
2021/09/27 03:31:56;;;;;;;63.75;29.00;;;12.40;99.90;;;;;;5051883;28;20021;-84
2021/09/27 03:34:45;;;;;;;62.83;28.90;;;12.40;99.90;;;;;;5051602;28;20032;-84
2021/09/27 03:37:31;;;;;;;66.63;29.33;;;12.40;99.90;;;;;;5051815;28;20040;-84
2021/09/27 03:40:28;;;;;;;73.40;30.17;;;12.40;99.90;;;;;;5051779;28;20029;-84
2021/09/27 03:43:32;;;;;;;72.05;28.73;;;12.40;99.90;;;;;;5051713;28;20033;-84
2021/09/27 03:46:00;;;;;;;;;;;12.40;99.90;;;;;;5053447;28;20021;-84
2021/09/27 03:49:05;;;;;;;69.80;27.83;;;12.30;99.90;;;;;;5051496;28;19908;-84
2021/09/27 03:51:41;;;;;;;66.63;28.38;;;12.30;99.90;;;;;;4994762;28;20041;-84
2021/09/27 03:54:17;;;;;;;71.68;29.67;;;12.30;99.90;;;;;;5045485;28;20470;-84
2021/09/27 03:57:03;;;;;;;63.75;29.88;;;12.20;99.90;;;;;;5052917;28;20021;-84
2021/09/27 03:59:32;;;;;;;57.92;28.30;;;12.20;99.90;;;;;;5051299;28;20107;-84
2021/09/27 04:02:28;;;;;;;71.25;28.38;;;12.20;99.90;;;;;;5051364;28;20025;-84
2021/09/27 04:05:07;;;;;;;52.92;27.40;;;12.20;99.90;;;;;;5031680;28;20033;-84
2021/09/27 04:07:53;;;;;;;67.10;29.77;;;12.20;99.90;;;;;;5048165;28;20036;-84
2021/09/27 04:10:36;;;;;;;61.20;28.55;;;12.20;99.90;;;;;;5031503;28;20028;-85
2021/09/27 04:13:08;;;;;;;64.30;28.70;;;12.20;99.90;;;;;;5031557;28;20030;-85
2021/09/27 04:16:27;;;;;;;65.93;28.17;;;12.20;99.90;;;;;;5031573;28;20060;-85
2021/09/27 04:19:03;;;;;;;53.33;26.65;;;12.20;99.90;;;;;;5031739;28;20076;-84
2021/09/27 04:21:47;;;;;;;60.78;31.83;;;12.20;99.90;;;;;;5032613;28;20026;-84
2021/09/27 04:24:54;;;;;;;58.28;29.88;;;12.20;99.90;;;;;;5038592;28;20045;-84
2021/09/27 04:27:31;;;;;;;74.32;31.13;;;12.20;99.90;;;;;;5045418;28;20399;-84
2021/09/27 04:30:00;;;;;;;68.75;31.58;;;12.20;99.90;;;;;;5049636;28;20506;-84
2021/09/27 04:32:29;;;;;;;80.13;32.45;;;12.20;99.90;;;;;;5038522;28;20492;-84
2021/09/27 04:35:07;;;;;;;73.38;29.77;;;12.20;99.90;;;;;;5048625;28;20445;-84
2021/09/27 04:37:33;;;;;;;80.78;31.05;;;12.20;99.90;;;;;;5047798;28;20032;-84
2021/09/27 04:39:59;;;;;;;66.53;30.80;;;12.20;99.90;;;;;;5035824;28;20029;-84
2021/09/27 04:42:31;;;;;;;64.05;30.80;;;12.20;99.90;;;;;;5031229;28;20022;-84
2021/09/27 04:45:04;;;;;;;67.50;30.08;;;12.20;99.90;;;;;;5054579;28;20171;-84
2021/09/27 04:48:17;;;;;;;67.85;30.20;;;12.20;99.90;;;;;;5054875;28;20048;-85
2021/09/27 04:50:46;;;;;;;;;;;12.20;99.90;;;;;;5011115;28;20494;-84
2021/09/27 04:53:33;;;;;;;52.83;26.27;;;12.10;99.90;;;;;;5063290;28;19911;-84
2021/09/27 04:56:05;;;;;;;59.42;28.77;;;12.10;99.90;;;;;;5052626;28;20051;-85
2021/09/27 04:58:47;;;;;;;61.27;29.30;;;12.10;99.90;;;;;;5043520;28;20024;-84
2021/09/27 05:01:46;;;;;;;59.90;29.90;;;12.10;99.90;;;;;;5045162;28;20064;-84
2021/09/27 05:04:23;;;;;;;65.78;30.52;;;12.10;99.90;;;;;;5050908;28;20533;-85
2021/09/27 05:07:19;;;;;;;68.20;29.42;;;12.10;99.90;;;;;;5045980;28;20045;-84
2021/09/27 05:10:08;;;;;;;76.53;34.47;;;12.10;99.90;;;;;;5043431;28;20024;-84
2021/09/27 05:13:00;;;;;;;82.07;33.67;;;12.10;99.90;;;;;;5043164;28;20026;-84
2021/09/27 05:15:37;;;;;;;80.38;33.00;;;12.10;99.90;;;;;;5053274;28;20017;-84
2021/09/27 05:18:24;;;;;;;74.90;32.28;;;12.10;99.90;;;;;;5049495;28;20535;-84
2021/09/27 05:21:21;;;;;;;76.85;31.10;;;12.10;99.90;;;;;;5052570;28;20432;-85
2021/09/27 05:23:48;;;;;;;67.80;30.13;;;12.10;99.90;;;;;;5048345;28;20364;-85
2021/09/27 05:26:38;;;;;;;77.18;31.77;;;12.10;99.90;;;;;;5047735;28;20033;-84
2021/09/27 05:29:09;;;;;;;63.63;30.20;;;12.10;99.90;;;;;;5049905;28;20028;-84
2021/09/27 05:31:47;;;;;;;67.13;29.85;;;12.20;99.90;;;;;;5052252;28;20073;-85
2021/09/27 05:34:46;;;;;;;64.35;32.22;;;12.20;99.90;;;;;;5060413;28;20401;-83
2021/09/27 05:37:28;;;;;;;76.72;29.20;;;12.20;99.90;;;;;;5061289;28;20017;-84
2021/09/27 05:40:24;;;;;;;60.20;27.83;;;12.20;99.90;;;;;;5052019;28;20087;-85
2021/09/27 05:43:15;;;;;;;56.03;25.50;;;12.20;99.90;;;;;;5053996;28;20395;-86
2021/09/27 05:45:46;;;;;;;60.90;27.58;;;12.20;99.90;;;;;;5050216;28;20390;-85
2021/09/27 05:48:20;;;;;;;52.72;24.75;;;12.20;99.90;;;;;;5051564;28;20025;-85
2021/09/27 05:51:18;;;;;;;48.38;22.45;;;12.20;99.90;;;;;;5050178;28;20047;-86
2021/09/27 05:54:03;;;;;;;49.15;24.00;;;12.20;99.90;;;;;;5063248;28;20037;-85
2021/09/27 05:56:50;;;;;;;52.58;25.55;;;12.30;99.90;;;;;;5070809;28;20478;-85
2021/09/27 05:59:41;;;;;;;51.33;25.23;;;12.30;99.90;;;;;;5052096;28;20083;-85
2021/09/27 06:02:39;;;;;;;53.90;24.05;;;12.40;99.90;;;;;;5050074;28;20017;-84
2021/09/27 06:05:29;;;;;;;47.55;22.50;;;12.30;99.90;;;;;;5052011;28;20569;-86
2021/09/27 06:08:09;;;;;;;52.08;23.13;;;12.40;99.90;;;;;;5050793;28;20033;-85
2021/09/27 06:11:10;;;;;;;40.20;21.95;;;12.30;99.90;;;;;;5051480;28;20033;-85
2021/09/27 06:13:39;;;;;;;47.45;22.63;;;12.40;99.90;;;;;;5045931;28;20028;-84
2021/09/27 06:16:46;;;;;;;37.47;20.60;;;12.30;99.90;;;;;;5050014;28;20040;-84
2021/09/27 06:19:36;;;;;;;37.33;20.58;;;12.40;99.90;;;;;;5045842;28;20041;-85
2021/09/27 06:22:23;;;;;;;45.75;23.52;;;12.50;99.90;;;;;;5051129;28;20112;-84
2021/09/27 06:25:24;;;;;;;44.90;23.60;;;12.50;99.90;;;;;;5050268;28;20528;-84
2021/09/27 06:28:26;;;;;;;41.50;21.92;;;12.50;99.90;;;;;;5043823;28;20037;-85
2021/09/27 06:31:01;;;;;;;48.60;22.77;;;12.50;99.90;;;;;;5034094;28;20124;-84
2021/09/27 06:33:38;;;;;;;41.97;23.02;;;12.50;99.90;;;;;;5050251;28;20029;-85
2021/09/27 06:36:11;;;;;;;41.75;23.63;;;12.50;99.90;;;;;;5051526;28;20513;-84
2021/09/27 06:38:39;;;;;;;40.67;23.95;;;12.50;99.90;;;;;;5051223;28;20063;-84
2021/09/27 06:41:09;;;;;;;41.92;23.08;;;12.60;99.90;;;;;;5050418;28;20065;-86
2021/09/27 06:43:35;;;;;;;51.80;23.25;;;12.60;99.90;;;;;;5051955;28;20031;-84
2021/09/27 06:46:01;;;;;;;46.13;22.85;;;12.60;99.90;;;;;;5052577;28;20037;-84
2021/09/27 06:48:27;;;;;;;50.13;24.92;;;12.70;99.90;;;;;;5050168;28;20029;-84
2021/09/27 06:50:55;;;;;;;47.30;24.88;;;12.60;99.90;;;;;;5050715;28;20029;-84
2021/09/27 06:53:21;;;;;;;48.75;24.58;;;12.70;99.90;;;;;;5051571;28;20096;-86
2021/09/27 06:55:47;;;;;;;44.53;22.65;;;12.70;99.90;;;;;;5049807;28;20110;-87
2021/09/27 06:58:13;;;;;;;41.28;22.75;;;12.70;99.90;;;;;;5049828;28;20560;-86
2021/09/27 07:00:38;;;;;;;42.40;24.08;;;12.80;99.90;;;;;;5050931;28;20033;-85
2021/09/27 07:03:04;;;;;;;51.42;23.88;;;12.80;99.90;;;;;;5050857;28;20078;-86
2021/09/27 07:05:30;;;;;;;55.80;25.27;;;12.90;99.90;;;;;;5050738;28;20037;-87
2021/09/27 07:07:56;;;;;;;48.58;23.40;;;12.90;99.90;;;;;;5050253;28;20033;-87
2021/09/27 07:10:23;;;;;;;42.25;23.02;;;12.90;99.90;;;;;;5049249;28;20025;-86
2021/09/27 07:12:50;;;;;;;38.95;22.48;;;13.00;99.90;;;;;;5047031;28;20028;-87
2021/09/27 07:15:17;;;;;;;44.13;23.77;;;13.00;99.90;;;;;;5051356;28;20449;-87
2021/09/27 07:17:43;;;;;;;46.00;24.55;;;13.00;99.90;;;;;;5050029;28;20024;-87
2021/09/27 07:20:13;;;;;;;47.20;23.58;;;13.00;99.90;;;;;;5049278;28;20033;-86
2021/09/27 07:22:39;;;;;;;41.28;23.77;;;13.00;99.90;;;;;;5050740;28;20082;-87
2021/09/27 07:25:08;;;;;;;39.45;22.48;;;13.00;99.90;;;;;;5051753;28;20457;-86
2021/09/27 07:27:34;;;;;;;45.65;24.60;;;13.10;99.90;;;;;;5049495;28;20233;-86
2021/09/27 07:29:59;;;;;;;36.25;22.60;;;13.20;99.90;;;;;;5049754;28;20040;-87
2021/09/27 07:32:25;;;;;;;42.30;24.95;;;13.20;99.90;;;;;;5049826;28;20029;-87
2021/09/27 07:34:51;;;;;;;41.78;22.65;;;13.30;99.90;;;;;;5051145;28;20059;-86
2021/09/27 07:37:17;;;;;;;36.33;21.83;;;13.40;99.90;;;;;;5049458;28;20155;-86
2021/09/27 07:39:43;;;;;;;39.63;23.75;;;13.40;99.90;;;;;;5049987;28;20132;-86
2021/09/27 07:42:09;;;;;;;39.47;22.70;;;13.50;99.90;;;;;;5051067;28;20017;-86
2021/09/27 07:44:36;;;;;;;37.25;22.27;;;13.50;99.90;;;;;;5051444;28;20048;-86
2021/09/27 07:47:03;;;;;;;31.33;20.25;;;13.50;99.90;;;;;;5050014;28;20482;-85
2021/09/27 07:49:29;;;;;;;29.30;20.90;;;13.50;99.90;;;;;;5048303;28;20386;-87
2021/09/27 07:51:57;;;;;;;36.05;20.80;;;13.50;99.90;;;;;;5050224;28;20018;-86
2021/09/27 07:54:23;;;;;;;37.88;20.90;;;13.50;99.90;;;;;;5048955;28;20136;-86
2021/09/27 07:56:49;;;;;;;37.20;21.58;;;13.60;99.90;;;;;;5051471;28;20017;-85
2021/09/27 07:59:15;;;;;;;39.70;21.92;;;13.60;99.90;;;;;;5035515;28;20521;-85
2021/09/27 08:01:41;;;;;;;40.85;22.38;;;13.70;99.90;;;;;;5050008;28;20116;-85
2021/09/27 08:04:09;;;;;;;36.28;22.55;;;13.70;99.90;;;;;;5049405;28;20036;-85
2021/09/27 08:06:36;;;;;;;38.10;22.33;;;13.80;99.90;;;;;;5044013;28;20061;-84
2021/09/27 08:09:06;;;;;;;37.40;21.70;;;13.90;99.90;;;;;;5038866;28;20390;-86
2021/09/27 08:11:43;;;;;;;37.13;23.17;;;13.90;99.90;;;;;;5046219;28;20443;-86
2021/09/27 08:14:10;;;;;;;38.00;21.83;;;13.90;99.90;;;;;;5025393;28;20033;-88
2021/09/27 08:16:36;;;;;;;34.70;21.13;;;14.00;99.90;;;;;;5029948;28;20547;-85
2021/09/27 08:19:05;;;;;;;39.75;23.02;;;14.20;99.90;;;;;;5047437;28;20032;-85
2021/09/27 08:21:33;;;;;;;41.42;24.65;;;14.20;99.90;;;;;;5053627;28;20029;-86
2021/09/27 08:23:59;;;;;;;51.92;28.10;;;14.30;99.90;;;;;;5051910;28;20424;-87
2021/09/27 08:26:25;;;;;;;49.45;30.00;;;14.40;99.90;;;;;;5052664;28;20083;-87
2021/09/27 08:28:50;;;;;;;39.60;23.80;;;14.40;99.90;;;;;;5053267;28;20025;-88
2021/09/27 08:31:20;;;;;;;40.15;22.52;;;14.50;99.90;;;;;;5052699;28;20033;-88
2021/09/27 08:33:48;;;;;;;33.08;21.73;;;14.70;99.90;;;;;;5052018;28;20041;-87
2021/09/27 08:36:17;;;;;;;38.95;25.75;;;14.80;99.90;;;;;;5051101;28;20036;-87
2021/09/27 08:38:44;;;;;;;41.40;26.45;;;15.00;99.90;;;;;;5053856;28;20040;-87
2021/09/27 08:41:16;;;;;;;39.20;24.75;;;15.00;99.90;;;;;;5052399;28;20041;-87
2021/09/27 08:44:06;;;;;;;43.58;27.80;;;15.00;99.90;;;;;;5053216;28;20032;-88
2021/09/27 08:46:52;;;;;;;41.90;26.80;;;15.00;99.90;;;;;;5049055;28;21258;-87
2021/09/27 08:49:18;;;;;;;38.90;24.98;;;14.90;99.90;;;;;;5051819;28;20033;-87
2021/09/27 08:51:44;;;;;;;34.53;23.80;;;15.00;99.90;;;;;;5053604;28;20116;-87
2021/09/27 08:54:14;;;;;;;42.72;24.73;;;15.00;99.90;;;;;;5051621;28;20475;-87
2021/09/27 08:56:49;;;;;;;37.45;24.25;;;15.10;99.90;;;;;;5052731;28;20032;-86
2021/09/27 08:59:36;;;;;;;35.53;25.67;;;15.20;99.90;;;;;;5033958;28;20045;-85
2021/09/27 09:02:11;;;;;;;34.97;22.95;;;15.10;99.90;;;;;;5050267;28;20120;-87
2021/09/27 09:04:46;;;;;;;40.95;24.50;;;15.00;99.90;;;;;;5049342;28;20112;-87
2021/09/27 09:07:20;;;;;;;35.83;23.00;;;15.00;99.90;;;;;;5042627;28;20037;-85
2021/09/27 09:09:52;;;;;;;38.60;24.08;;;15.00;99.90;;;;;;5052579;28;20021;-87
2021/09/27 09:12:25;;;;;;;34.15;22.65;;;15.10;99.90;;;;;;5052626;28;20021;-87
2021/09/27 09:15:04;;;;;;;27.88;20.75;;;15.10;99.90;;;;;;5048294;28;20413;-86
2021/09/27 09:17:45;;;;;;;35.33;23.20;;;15.10;99.90;;;;;;5053782;28;20323;-87
2021/09/27 09:20:18;;;;;;;37.95;26.40;;;15.20;99.90;;;;;;5052427;28;20021;-87
2021/09/27 09:22:46;;;;;;;35.22;24.40;;;15.30;99.90;;;;;;5048826;28;20479;-88
2021/09/27 09:25:21;;;;;;;32.95;22.92;;;15.30;99.90;;;;;;5048929;28;20050;-88
2021/09/27 09:27:47;;;;;;;34.17;21.42;;;15.40;99.90;;;;;;5033584;28;20052;-87
2021/09/27 09:30:13;;;;;;;31.08;23.08;;;15.50;99.90;;;;;;5031307;28;20104;-89
2021/09/27 09:32:40;;;;;;;35.75;24.13;;;15.60;99.90;;;;;;5037059;28;20090;-87
2021/09/27 09:35:30;;;;;;;30.23;22.02;;;15.80;99.90;;;;;;5052255;28;20021;-87
2021/09/27 09:38:11;;;;;;;33.83;23.10;;;15.80;99.90;;;;;;5047486;28;20613;-88
2021/09/27 09:40:39;;;;;;;30.77;22.98;;;16.00;99.90;;;;;;5049210;28;20037;-86
2021/09/27 09:43:10;;;;;;;29.75;21.58;;;16.10;99.90;;;;;;5033623;28;20083;-88
2021/09/27 09:45:40;;;;;;;28.67;20.50;;;16.20;99.90;;;;;;5033605;28;20399;-87
2021/09/27 09:48:17;;;;;;;32.83;22.17;;;16.30;99.90;;;;;;5049925;28;20033;-87
2021/09/27 09:50:45;;;;;;;26.05;21.02;;;16.30;99.90;;;;;;5033552;28;20042;-86
2021/09/27 09:53:37;;;;;;;28.15;20.20;;;16.30;99.90;;;;;;5032152;28;20022;-86
2021/09/27 09:56:07;;;;;;;26.75;18.75;;;16.50;99.90;;;;;;5052028;28;20045;-88
2021/09/27 09:58:45;;;;;;;27.00;20.60;;;16.60;99.90;;;;;;5040277;28;20053;-86
2021/09/27 10:01:32;;;;;;;35.00;20.75;;;16.70;99.90;;;;;;5032358;28;20046;-87
2021/09/27 10:03:59;;;;;;;37.10;21.13;;;16.70;99.90;;;;;;5058179;28;20379;-87
2021/09/27 10:06:36;;;;;;;26.58;20.40;;;16.60;99.90;;;;;;5052468;28;20129;-87
2021/09/27 10:09:06;;;;;;;26.08;19.40;;;16.70;99.90;;;;;;5051215;28;21355;-86
2021/09/27 10:11:37;;;;;;;27.55;19.30;;;17.00;99.90;;;;;;5051432;28;20083;-86
2021/09/27 10:14:19;;;;;;;35.63;19.50;;;17.20;99.90;;;;;;5047670;28;20039;-85
2021/09/27 10:16:54;;;;;;;23.65;18.77;;;17.40;99.90;;;;;;5051614;28;20036;-85
2021/09/27 10:19:33;;;;;;;24.38;17.75;;;17.50;99.90;;;;;;5050591;28;20379;-85
2021/09/27 10:22:06;;;;;;;23.90;17.42;;;17.50;99.90;;;;;;5051538;28;20120;-87
2021/09/27 10:24:42;;;;;;;23.92;17.30;;;17.40;99.90;;;;;;5052276;28;20020;-87
2021/09/27 10:27:44;;;;;;;27.13;17.30;;;17.50;99.90;;;;;;5050768;28;20041;-86
2021/09/27 10:30:24;;;;;;;22.73;16.13;;;17.70;99.90;;;;;;5020256;28;20045;-86
2021/09/27 10:33:02;;;;;;;22.10;15.73;;;17.80;99.90;;;;;;5032351;28;20022;-86
2021/09/27 10:35:40;;;;;;;25.50;16.92;;;18.00;99.90;;;;;;5047372;28;20017;-86
2021/09/27 10:38:21;;;;;;;26.55;16.42;;;18.00;99.90;;;;;;5032378;28;20036;-86
2021/09/27 10:40:49;;;;;;;17.65;14.45;;;18.10;99.90;;;;;;5031868;28;20120;-86
2021/09/27 10:43:19;;;;;;;16.67;14.35;;;18.20;99.90;;;;;;5047315;28;20364;-87
2021/09/27 10:45:50;;;;;;;23.20;14.07;;;18.20;99.90;;;;;;5047660;28;20462;-85
2021/09/27 10:48:17;;;;;;;22.35;14.35;;;18.20;99.90;;;;;;5046272;28;20563;-86
2021/09/27 10:50:48;;;;;;;18.33;14.75;;;18.10;99.90;;;;;;5047757;28;20029;-85
2021/09/27 10:53:33;;;;;;;21.33;15.90;;;18.20;99.90;;;;;;5029773;28;20071;-85
2021/09/27 10:56:57;;;;;;;18.23;15.18;;;18.30;99.90;;;;;;5063225;28;20110;-86
2021/09/27 10:59:46;;;;;;;18.42;14.80;;;18.40;99.90;;;;;;5029363;28;20048;-86
2021/09/27 11:02:34;;;;;;;20.90;15.65;;;18.60;99.90;;;;;;5028480;28;20037;-86
2021/09/27 11:05:20;;;;;;;50.47;29.77;;;18.70;99.90;;;;;;5045756;28;20072;-86
2021/09/27 11:07:55;;;;;;;17.52;12.85;;;18.90;99.90;;;;;;5030339;28;20042;-86
2021/09/27 11:10:49;;;;;;;12.82;11.50;;;18.90;99.90;;;;;;5031283;28;20033;-86
2021/09/27 11:13:39;;;;;;;14.98;12.20;;;18.90;99.90;;;;;;5026613;28;20463;-86
2021/09/27 11:16:17;;;;;;;15.98;12.30;;;19.00;99.90;;;;;;5055503;28;20090;-84
2021/09/27 11:19:04;;;;;;;17.83;12.60;;;19.20;99.90;;;;;;5049956;28;20025;-84
2021/09/27 11:21:35;;;;;;;15.00;11.52;;;19.20;99.90;;;;;;5048963;28;20033;-84
2021/09/27 11:24:09;;;;;;;13.75;11.77;;;19.20;99.90;;;;;;5050625;28;20025;-83
2021/09/27 11:26:38;;;;;;;11.80;10.48;;;19.30;99.90;;;;;;5048691;28;20510;-83
2021/09/27 11:29:24;;;;;;;12.27;9.80;;;19.30;99.90;;;;;;5050211;28;20114;-83
2021/09/27 11:32:09;;;;;;;21.42;12.93;;;19.50;99.90;;;;;;5051264;28;20037;-83
2021/09/27 11:34:38;;;;;;;13.35;10.70;;;19.60;99.90;;;;;;5050086;28;20607;-83
2021/09/27 11:37:15;;;;;;;13.23;10.15;;;19.80;99.90;;;;;;5049864;28;20123;-84
2021/09/27 11:40:07;;;;;;;13.93;10.73;;;19.70;99.90;;;;;;5050579;28;20398;-83
2021/09/27 11:42:42;;;;;;;12.10;10.10;;;19.70;99.90;;;;;;5051288;28;20036;-84
2021/09/27 11:45:46;;;;;;;14.80;12.30;;;19.80;99.90;;;;;;5049734;28;20029;-83
2021/09/27 11:48:18;;;;;;;16.02;9.75;;;19.90;99.90;;;;;;5029197;28;20049;-83
2021/09/27 11:51:22;;;;;;;10.32;8.60;;;20.00;99.90;;;;;;5031474;28;20022;-84
2021/09/27 11:54:01;;;;;;;12.98;9.82;;;20.00;99.90;;;;;;5015004;28;20034;-83
2021/09/27 11:56:42;;;;;;;12.98;9.40;;;20.00;99.90;;;;;;5029433;28;21819;-84
2021/09/27 11:59:13;;;;;;;12.40;9.38;;;20.10;99.90;;;;;;5041640;28;20475;-83
2021/09/27 12:02:03;;;;;;;12.75;9.70;;;20.10;99.90;;;;;;5029209;28;20045;-83
2021/09/27 12:05:07;;;;;;;16.15;9.90;;;20.00;99.90;;;;;;5048935;28;20036;-83
2021/09/27 12:07:55;;;;;;;;;;;20.10;99.90;;;;;;5039820;28;20075;-83
2021/09/27 12:10:34;;;;;;;39.92;14.88;;;20.20;99.90;;;;;;5029230;28;19915;-83
2021/09/27 12:13:20;;;;;;;17.92;12.27;;;20.20;99.90;;;;;;5031445;28;20038;-83
2021/09/27 12:15:56;;;;;;;10.82;9.57;;;20.30;99.90;;;;;;5033277;28;20112;-83
2021/09/27 12:18:45;;;;;;;13.65;9.75;;;20.30;99.90;;;;;;5049712;28;20190;-83
2021/09/27 12:21:17;;;;;;;26.65;16.65;;;20.30;99.90;;;;;;5076527;28;20031;-83
2021/09/27 12:23:59;;;;;;;21.65;13.00;;;20.40;99.90;;;;;;5072080;28;20016;-82
2021/09/27 12:26:31;;;;;;;12.63;9.32;;;20.40;99.90;;;;;;5070169;28;20444;-84
2021/09/27 12:29:07;;;;;;;14.57;8.95;;;20.40;99.90;;;;;;5042783;28;20483;-82
2021/09/27 12:31:33;;;;;;;15.77;11.32;;;20.40;99.90;;;;;;5045869;28;20492;-83
2021/09/27 12:34:16;;;;;;;11.43;8.60;;;20.40;99.90;;;;;;5046689;28;20104;-83
2021/09/27 12:36:41;;;;;;;14.20;10.45;;;20.50;99.90;;;;;;5040736;28;20026;-83
2021/09/27 12:39:08;;;;;;;13.52;9.52;;;20.50;99.90;;;;;;5049926;28;20104;-83
2021/09/27 12:41:35;;;;;;;10.18;8.40;;;20.50;99.90;;;;;;5050166;28;20040;-83
2021/09/27 12:44:15;;;;;;;12.65;9.27;;;20.40;99.90;;;;;;5049657;28;20024;-83
2021/09/27 12:46:44;;;;;;;14.20;10.77;;;20.40;99.90;;;;;;5048677;28;20425;-83
2021/09/27 12:49:10;;;;;;;19.33;10.95;;;20.40;99.90;;;;;;5048907;28;20028;-82
2021/09/27 12:51:46;;;;;;;13.98;9.70;;;20.50;99.90;;;;;;5050269;28;20108;-84
2021/09/27 12:54:33;;;;;;;12.10;9.50;;;20.60;99.90;;;;;;5049196;28;20025;-84
2021/09/27 12:57:05;;;;;;;15.57;9.93;;;20.60;99.90;;;;;;5055383;28;20029;-84
2021/09/27 12:59:32;;;;;;;14.40;8.88;;;20.50;99.90;;;;;;5036751;28;20483;-84
2021/09/27 13:02:04;;;;;;;12.43;8.43;;;20.50;99.90;;;;;;5048907;28;20368;-84
2021/09/27 13:04:34;;;;;;;12.05;8.23;;;20.50;99.90;;;;;;5050167;28;20111;-83
2021/09/27 13:07:07;;;;;;;12.13;9.05;;;20.30;99.90;;;;;;5052407;28;20131;-83
2021/09/27 13:09:57;;;;;;;13.00;8.10;;;20.30;99.90;;;;;;5054308;28;20021;-83
2021/09/27 13:12:23;;;;;;;10.07;7.78;;;20.30;99.90;;;;;;5051347;28;20032;-83
2021/09/27 13:15:16;;;;;;;11.25;7.40;;;20.30;99.90;;;;;;5039892;28;20029;-84
2021/09/27 13:18:09;;;;;;;9.82;7.88;;;20.30;99.90;;;;;;5033686;28;20061;-83
2021/09/27 13:21:03;;;;;;;19.00;11.65;;;20.30;99.90;;;;;;5049160;28;20144;-83